ADDS METAR Data INFO
IDs: Format: Raw Decoded Include TAF

Data at: 0407 UTC 11 Dec 2017

KVBS 102305Z AUTO 19009KT 10SM CLR 14/M02 A3036 RMK A01
KVBS 102235Z AUTO 20006KT 10SM CLR 14/M01 A3036 RMK A01
KVBS 102150Z AUTO VRB03KT 10SM CLR 14/00 A3036 RMK A01
KVBS 102130Z AUTO 00000KT 10SM CLR 15/01 A3036 RMK A01
KVBS 102055Z AUTO 00000KT 10SM CLR 15/00 A3037 RMK A01
KVBS 102020Z AUTO 20003KT 10SM CLR 14/M00 A3038 RMK A01
KVBS 101455Z AUTO 02007KT 10SM CLR 12/02 A3043 RMK A01
KVBS 101125Z AUTO 36016KT 10SM CLR 12/02 A3035 RMK A01
KVBS 100830Z AUTO 28012KT 10SM CLR 13/04 A3035 RMK A01
KVBS 100740Z AUTO 27013KT 10SM CLR 14/04 A3035 RMK A01
KVBS 100725Z AUTO 27011KT 10SM CLR 14/05 A3034 RMK A01
KVBS 100615Z AUTO 26009KT 10SM CLR 14/04 A3035 RMK A01
KVBS 100540Z AUTO 26010KT 10SM CLR 14/03 A3034 RMK A01
KVBS 100415Z AUTO 29008KT 10SM CLR 14/03 A3033 RMK A01
KVBS 100110Z AUTO 28015KT 10SM CLR 14/02 A3026 RMK A01
KVBS 092235Z AUTO 22009KT 10SM CLR 13/05 A3021 RMK A01
KVBS 092140Z AUTO 23009KT 10SM CLR 12/04 A3020 RMK A01
KVBS 092130Z AUTO 23010KT 10SM CLR 12/04 A3021 RMK A01
KVBS 092110Z AUTO 22009KT 10SM CLR 12/04 A3021 RMK A01
KVBS 091925Z AUTO 24006KT 10SM CLR 11/03 A3022 RMK A01
KVBS 091840Z AUTO 24010KT 10SM CLR 11/04 A3024 RMK A01
KVBS 091745Z AUTO 25007KT 10SM CLR 11/03 A3026 RMK A01
KVBS 091740Z AUTO 25008KT 10SM CLR 11/03 A3026 RMK A01
KVBS 091720Z AUTO 25008KT 10SM CLR 10/03 A3027 RMK A01
KVBS 091700Z AUTO 25006KT 10SM CLR 10/03 A3027 RMK A01
KVBS 091640Z AUTO 24008KT 10SM CLR 10/02 A3027 RMK A01
KVBS 091620Z AUTO 25007KT 10SM CLR 10/01 A3027 RMK A01